createdAt,value
2019-02-11T00:00:36.283Z,62.52
2019-02-11T00:01:19.331Z,62.42
2019-02-11T00:01:54.081Z,62.59
2019-02-11T00:02:28.707Z,62.70
2019-02-11T00:03:03.051Z,62.70
2019-02-11T00:03:37.452Z,62.70
2019-02-11T00:04:12.212Z,62.71
2019-02-11T00:04:46.874Z,62.98
2019-02-11T00:05:21.449Z,62.96
2019-02-11T00:05:55.876Z,62.96
2019-02-11T00:06:30.246Z,62.88
2019-02-11T00:07:04.849Z,62.86
2019-02-11T00:07:39.496Z,62.94
2019-02-11T00:08:13.840Z,62.97
2019-02-11T00:08:48.440Z,62.93
2019-02-11T00:09:22.892Z,62.67
2019-02-11T00:09:57.282Z,62.67
2019-02-11T00:10:32.166Z,62.54
2019-02-11T00:11:06.566Z,62.54
2019-02-11T00:11:40.924Z,62.67
2019-02-11T00:12:15.538Z,62.98
2019-02-11T00:12:50.160Z,62.75
2019-02-11T00:13:24.523Z,62.69
2019-02-11T00:13:58.885Z,62.66
2019-02-11T00:14:33.212Z,62.46
2019-02-11T00:15:07.965Z,62.59
2019-02-11T00:15:42.308Z,62.51
2019-02-11T00:16:16.898Z,62.51
2019-02-11T00:16:51.373Z,62.29
2019-02-11T00:17:25.729Z,62.41
2019-02-11T00:18:00.105Z,62.19
2019-02-11T00:18:34.995Z,62.29
2019-02-11T00:19:11.072Z,62.27
2019-02-11T00:19:45.561Z,62.43
2019-02-11T00:20:20.159Z,62.43
2019-02-11T00:20:54.609Z,62.50
2019-02-11T00:21:29.219Z,62.62
2019-02-11T00:22:03.931Z,62.50
2019-02-11T00:22:38.276Z,62.51
2019-02-11T00:23:12.639Z,62.62
2019-02-11T00:23:47.328Z,62.62
2019-02-11T00:24:21.934Z,62.63
2019-02-11T00:24:56.341Z,62.52
2019-02-11T00:25:30.939Z,62.60
2019-02-11T00:26:05.532Z,62.46
2019-02-11T00:26:40.137Z,62.02
2019-02-11T00:27:14.991Z,62.08
2019-02-11T00:27:49.592Z,62.20
2019-02-11T00:28:23.959Z,62.03
2019-02-11T00:28:58.550Z,62.03
2019-02-11T00:29:32.888Z,61.99
2019-02-11T00:30:07.609Z,62.16
2019-02-11T00:30:42.303Z,62.16
2019-02-11T00:31:17.058Z,62.06
2019-02-11T00:31:52.009Z,62.14
2019-02-11T00:32:26.410Z,62.36
2019-02-11T00:33:00.779Z,62.31
2019-02-11T00:33:35.101Z,62.13
2019-02-11T00:34:09.435Z,62.02
2019-02-11T00:34:44.375Z,61.90
2019-02-11T00:35:19.297Z,62.08
2019-02-11T00:35:53.955Z,62.06
2019-02-11T00:36:28.617Z,61.71
2019-02-11T00:37:03.312Z,61.50
2019-02-11T00:37:37.651Z,61.50
2019-02-11T00:38:12.289Z,61.53
2019-02-11T00:38:46.958Z,61.47
2019-02-11T00:39:21.324Z,61.66
2019-02-11T00:39:55.961Z,61.99
2019-02-11T00:40:30.406Z,61.99
2019-02-11T00:41:04.984Z,61.86
2019-02-11T00:41:39.593Z,61.76
2019-02-11T00:42:13.943Z,61.93
2019-02-11T00:42:48.317Z,61.82
2019-02-11T00:43:22.790Z,62.04
2019-02-11T00:43:57.414Z,62.05
2019-02-11T00:44:32.043Z,61.89
2019-02-11T00:45:06.767Z,62.13
2019-02-11T00:45:41.637Z,61.91
2019-02-11T00:46:16.077Z,62.03
2019-02-11T00:46:50.775Z,61.83
2019-02-11T00:47:25.439Z,61.83
2019-02-11T00:47:59.804Z,61.73
2019-02-11T00:48:34.418Z,61.82
2019-02-11T00:49:09.103Z,61.83
2019-02-11T00:49:43.715Z,61.83
2019-02-11T00:50:18.117Z,61.78
2019-02-11T00:50:52.469Z,61.69
2019-02-11T00:51:27.057Z,61.74
2019-02-11T00:52:01.482Z,61.73
2019-02-11T00:52:35.825Z,61.43
2019-02-11T00:53:10.416Z,61.73
2019-02-11T00:53:44.761Z,61.67
2019-02-11T00:54:19.450Z,61.84
2019-02-11T00:54:54.081Z,61.91
2019-02-11T00:55:28.472Z,61.77
2019-02-11T00:56:02.813Z,61.79
2019-02-11T00:56:37.168Z,61.74
2019-02-11T00:57:11.907Z,61.92
2019-02-11T00:57:46.253Z,62.11
2019-02-11T00:58:20.618Z,61.93
2019-02-11T00:58:55.532Z,61.98
2019-02-11T00:59:29.872Z,61.87
2019-02-11T01:00:05.130Z,61.67
2019-02-11T01:00:39.723Z,61.90
2019-02-11T01:01:14.149Z,61.89
2019-02-11T01:01:49.259Z,61.96
2019-02-11T01:02:23.949Z,61.95
2019-02-11T01:02:58.287Z,61.88
2019-02-11T01:03:32.866Z,62.04
2019-02-11T01:04:07.293Z,62.19
2019-02-11T01:04:41.917Z,62.11
2019-02-11T01:05:16.307Z,62.25
2019-02-11T01:05:51.115Z,62.33
2019-02-11T01:06:25.732Z,62.50
2019-02-11T01:07:00.671Z,62.52
2019-02-11T01:07:35.290Z,62.40
2019-02-11T01:08:09.896Z,62.80
2019-02-11T01:08:44.232Z,63.05
2019-02-11T01:09:18.900Z,62.78
2019-02-11T01:09:53.258Z,62.87
2019-02-11T01:10:27.923Z,63.04
2019-02-11T01:11:02.259Z,63.00
2019-02-11T01:11:36.691Z,63.34
2019-02-11T01:12:11.141Z,63.75
2019-02-11T01:12:45.540Z,64.09
2019-02-11T01:13:27.592Z,64.18
2019-02-11T01:13:56.250Z,64.68
2019-02-11T01:14:30.584Z,64.48
2019-02-11T01:15:05.562Z,64.55
2019-02-11T01:15:40.176Z,65.05
2019-02-11T01:16:14.525Z,65.01
2019-02-11T01:16:48.888Z,65.60
2019-02-11T01:17:23.568Z,65.79
2019-02-11T01:17:58.167Z,65.99
2019-02-11T01:18:32.902Z,66.14
2019-02-11T01:19:07.629Z,66.12
2019-02-11T01:19:42.531Z,66.19
2019-02-11T01:20:16.913Z,66.08
2019-02-11T01:20:51.620Z,66.36
2019-02-11T01:21:26.637Z,66.27
2019-02-11T01:22:00.981Z,66.19
2019-02-11T01:22:35.647Z,66.04
2019-02-11T01:23:10.093Z,66.03
2019-02-11T01:23:44.424Z,66.24
2019-02-11T01:24:19.078Z,66.18
2019-02-11T01:24:53.448Z,65.98
2019-02-11T01:25:27.924Z,66.35
2019-02-11T01:26:02.532Z,66.54
2019-02-11T01:26:37.181Z,66.50
2019-02-11T01:27:11.475Z,66.33
2019-02-11T01:27:45.807Z,66.37
2019-02-11T01:28:20.171Z,66.30
2019-02-11T01:28:54.531Z,66.29
2019-02-11T01:29:28.870Z,66.22
2019-02-11T01:30:03.482Z,66.49
2019-02-11T01:30:37.862Z,66.69
2019-02-11T01:31:12.210Z,67.06
2019-02-11T01:31:46.800Z,66.81
2019-02-11T01:32:21.201Z,66.96
2019-02-11T01:32:56.132Z,66.87
2019-02-11T01:33:30.994Z,66.89
2019-02-11T01:34:05.360Z,66.94
2019-02-11T01:34:39.715Z,66.74
2019-02-11T01:35:14.405Z,66.93
2019-02-11T01:35:48.786Z,66.93
2019-02-11T01:36:23.429Z,67.40
2019-02-11T01:36:57.779Z,67.33
2019-02-11T01:37:32.124Z,67.22
2019-02-11T01:38:06.465Z,67.54
2019-02-11T01:38:41.102Z,67.93
2019-02-11T01:39:15.446Z,68.16
2019-02-11T01:39:49.815Z,68.62
2019-02-11T01:40:24.179Z,68.70
2019-02-11T01:40:58.657Z,68.52
2019-02-11T01:41:33.245Z,68.93
2019-02-11T01:42:07.580Z,68.82
2019-02-11T01:42:42.178Z,68.73
2019-02-11T01:43:16.793Z,69.16
2019-02-11T01:43:51.220Z,69.47
2019-02-11T01:44:25.583Z,69.42
2019-02-11T01:45:00.276Z,69.97
2019-02-11T01:45:34.884Z,69.86
2019-02-11T01:46:09.238Z,69.86
2019-02-11T01:46:43.584Z,70.42
2019-02-11T01:47:19.997Z,70.45
2019-02-11T01:47:54.339Z,70.68
2019-02-11T01:48:29.021Z,70.68
2019-02-11T01:49:03.373Z,70.70
2019-02-11T01:49:37.726Z,70.80
2019-02-11T01:50:13.202Z,70.72
2019-02-11T01:50:47.560Z,70.86
2019-02-11T01:51:22.204Z,71.16
2019-02-11T01:51:56.828Z,71.52
2019-02-11T01:52:31.425Z,71.45
2019-02-11T01:53:06.045Z,71.18
2019-02-11T01:53:40.497Z,71.59
2019-02-11T01:54:14.849Z,71.50
2019-02-11T01:54:49.472Z,71.24
2019-02-11T01:55:23.857Z,71.56
2019-02-11T01:55:58.743Z,71.59
2019-02-11T01:56:33.082Z,71.71
2019-02-11T01:57:07.434Z,71.59
2019-02-11T01:57:41.775Z,71.53
2019-02-11T01:58:16.370Z,71.89
2019-02-11T01:58:51.274Z,71.73
2019-02-11T01:59:25.624Z,71.63
2019-02-11T02:00:00.344Z,71.64
2019-02-11T02:00:35.177Z,71.40
2019-02-11T02:01:09.811Z,71.67
2019-02-11T02:01:44.160Z,72.13
2019-02-11T02:02:18.771Z,71.95
2019-02-11T02:02:53.175Z,72.05
2019-02-11T02:03:27.797Z,71.94
2019-02-11T02:04:02.138Z,71.97
2019-02-11T02:04:36.765Z,72.04
2019-02-11T02:05:11.124Z,71.71
2019-02-11T02:05:45.469Z,72.16
2019-02-11T02:06:19.892Z,72.27
2019-02-11T02:06:54.248Z,72.39
2019-02-11T02:07:28.917Z,72.16
2019-02-11T02:08:03.607Z,72.29
2019-02-11T02:08:38.250Z,72.43
2019-02-11T02:09:12.592Z,72.39
2019-02-11T02:09:48.547Z,72.49
2019-02-11T02:10:22.899Z,72.66
2019-02-11T02:10:57.645Z,72.87
2019-02-11T02:11:31.986Z,72.86
2019-02-11T02:12:06.324Z,72.99
2019-02-11T02:12:40.940Z,73.16
2019-02-11T02:13:15.340Z,73.30
2019-02-11T02:13:49.695Z,73.28
2019-02-11T02:14:24.059Z,73.25
2019-02-11T02:14:58.426Z,73.31
2019-02-11T02:15:32.771Z,73.18
2019-02-11T02:16:07.136Z,73.38
2019-02-11T02:16:41.758Z,73.09
2019-02-11T02:17:16.098Z,73.04
2019-02-11T02:17:50.439Z,72.78
2019-02-11T02:18:25.080Z,72.90
2019-02-11T02:18:59.718Z,72.94
2019-02-11T02:19:34.307Z,72.86
2019-02-11T02:20:10.148Z,72.90
2019-02-11T02:20:44.757Z,73.19
2019-02-11T02:21:19.147Z,72.99
2019-02-11T02:21:53.552Z,73.24
2019-02-11T02:22:27.863Z,73.38
2019-02-11T02:23:02.516Z,73.18
2019-02-11T02:23:37.095Z,72.98
2019-02-11T02:24:11.564Z,73.38
2019-02-11T02:24:46.151Z,73.21
2019-02-11T02:25:20.505Z,72.95
2019-02-11T02:25:55.400Z,72.79
2019-02-11T02:26:30.006Z,72.95
2019-02-11T02:27:04.610Z,73.19
2019-02-11T02:27:39.297Z,73.41
2019-02-11T02:28:13.946Z,73.69
2019-02-11T02:28:48.298Z,74.14
2019-02-11T02:29:23.025Z,73.87
2019-02-11T02:29:57.620Z,73.98
2019-02-11T02:30:31.949Z,73.75
2019-02-11T02:31:06.308Z,73.61
2019-02-11T02:31:40.661Z,73.82
2019-02-11T02:32:15.299Z,73.74
2019-02-11T02:32:49.941Z,73.76
2019-02-11T02:33:24.324Z,73.51
2019-02-11T02:33:58.674Z,73.75
2019-02-11T02:34:33.063Z,73.75
2019-02-11T02:35:07.403Z,73.62
2019-02-11T02:35:41.873Z,73.67
2019-02-11T02:36:16.254Z,73.83
2019-02-11T02:36:50.651Z,74.12
2019-02-11T02:37:25.013Z,73.84
2019-02-11T02:37:59.333Z,73.70
2019-02-11T02:38:34.005Z,73.73
2019-02-11T02:39:08.375Z,73.71
2019-02-11T02:39:43.406Z,73.66
2019-02-11T02:40:18.005Z,73.53
2019-02-11T02:40:52.642Z,73.99
2019-02-11T02:41:27.251Z,73.84
2019-02-11T02:42:01.890Z,73.75
2019-02-11T02:42:36.209Z,73.86
2019-02-11T02:43:10.803Z,73.92
2019-02-11T02:43:54.890Z,73.71
2019-02-11T02:44:21.230Z,73.47
2019-02-11T02:44:55.641Z,73.53
2019-02-11T02:45:29.991Z,73.58
2019-02-11T02:46:04.922Z,73.63
2019-02-11T02:46:39.539Z,73.65
2019-02-11T02:47:13.874Z,74.05
2019-02-11T02:47:48.212Z,74.25
2019-02-11T02:48:22.570Z,74.51
2019-02-11T02:48:57.188Z,73.95
2019-02-11T02:49:31.547Z,73.92
2019-02-11T02:50:06.709Z,74.04
2019-02-11T02:50:41.372Z,73.86
2019-02-11T02:51:15.747Z,74.15
2019-02-11T02:51:50.353Z,74.34
2019-02-11T02:52:24.974Z,74.37
2019-02-11T02:52:59.323Z,74.52
2019-02-11T02:53:33.942Z,74.60
2019-02-11T02:54:08.380Z,74.54
2019-02-11T02:54:42.994Z,74.90
2019-02-11T02:55:17.325Z,74.93
2019-02-11T02:55:52.064Z,74.58
2019-02-11T02:56:26.449Z,74.50
2019-02-11T02:57:01.078Z,74.59
2019-02-11T02:57:35.761Z,74.69
2019-02-11T02:58:10.426Z,74.40
2019-02-11T02:58:45.029Z,74.31
2019-02-11T02:59:19.737Z,74.37
2019-02-11T02:59:54.118Z,74.59
2019-02-11T03:00:28.579Z,74.26
2019-02-11T03:01:02.989Z,74.30
2019-02-11T03:01:37.394Z,74.75
2019-02-11T03:02:12.305Z,74.68
2019-02-11T03:02:46.754Z,74.35
2019-02-11T03:03:21.158Z,74.53
2019-02-11T03:03:55.543Z,74.84
2019-02-11T03:04:29.870Z,74.91
2019-02-11T03:05:04.402Z,75.14
2019-02-11T03:05:38.745Z,74.80
2019-02-11T03:06:13.093Z,74.60
2019-02-11T03:06:47.794Z,74.67
2019-02-11T03:07:22.396Z,74.58
2019-02-11T03:07:56.738Z,74.81
2019-02-11T03:08:31.142Z,74.70
2019-02-11T03:09:05.850Z,74.54
2019-02-11T03:09:40.571Z,74.59
2019-02-11T03:10:14.927Z,75.02
2019-02-11T03:10:49.369Z,75.00
2019-02-11T03:11:23.974Z,75.00
2019-02-11T03:11:58.606Z,75.23
2019-02-11T03:12:32.963Z,75.24
2019-02-11T03:13:07.334Z,75.01
2019-02-11T03:13:41.734Z,75.21
2019-02-11T03:14:16.084Z,75.01
2019-02-11T03:14:50.426Z,75.18
2019-02-11T03:15:25.125Z,75.17
2019-02-11T03:15:59.468Z,75.42
2019-02-11T03:16:34.079Z,75.46
2019-02-11T03:17:08.718Z,75.55
2019-02-11T03:17:43.062Z,75.68
2019-02-11T03:18:17.403Z,75.85
2019-02-11T03:18:52.084Z,75.81
2019-02-11T03:19:26.411Z,75.31
2019-02-11T03:20:00.804Z,75.37
2019-02-11T03:20:35.531Z,75.33
2019-02-11T03:21:10.147Z,75.86
2019-02-11T03:21:44.483Z,75.38
2019-02-11T03:22:18.847Z,74.96
2019-02-11T03:22:53.221Z,75.05
2019-02-11T03:23:27.677Z,75.18
2019-02-11T03:24:02.065Z,75.03
2019-02-11T03:24:36.714Z,74.92
2019-02-11T03:25:11.061Z,74.84
2019-02-11T03:25:45.408Z,74.83
2019-02-11T03:26:19.795Z,74.46
2019-02-11T03:26:54.141Z,74.36
2019-02-11T03:27:28.829Z,74.34
2019-02-11T03:28:03.304Z,74.74
2019-02-11T03:28:37.679Z,74.64
2019-02-11T03:29:12.260Z,74.51
2019-02-11T03:29:47.179Z,74.30
2019-02-11T03:30:21.573Z,74.33
2019-02-11T03:30:55.924Z,74.68
2019-02-11T03:31:30.276Z,74.24
2019-02-11T03:32:04.740Z,74.16
2019-02-11T03:32:39.086Z,74.35
2019-02-11T03:33:13.674Z,74.51
2019-02-11T03:33:48.129Z,74.48
2019-02-11T03:34:22.481Z,74.43
2019-02-11T03:34:56.835Z,74.51
2019-02-11T03:35:31.168Z,74.18
2019-02-11T03:36:05.500Z,74.42
2019-02-11T03:36:39.847Z,74.49
2019-02-11T03:37:14.274Z,74.24
2019-02-11T03:37:48.611Z,73.93
2019-02-11T03:38:23.239Z,74.04
2019-02-11T03:38:58.162Z,73.86
2019-02-11T03:39:32.519Z,73.67
2019-02-11T03:40:07.082Z,73.59
2019-02-11T03:40:41.440Z,73.96
2019-02-11T03:41:15.776Z,74.08
2019-02-11T03:41:50.261Z,73.75
2019-02-11T03:42:24.896Z,73.76
2019-02-11T03:42:59.239Z,73.69
2019-02-11T03:43:33.842Z,73.69
2019-02-11T03:44:14.914Z,73.44
2019-02-11T03:44:45.198Z,73.91
2019-02-11T03:45:19.974Z,74.17
2019-02-11T03:45:54.899Z,73.76
2019-02-11T03:46:29.492Z,73.50
2019-02-11T03:47:03.828Z,73.63
2019-02-11T03:47:38.785Z,73.17
2019-02-11T03:48:13.113Z,73.27
2019-02-11T03:48:47.502Z,73.41
2019-02-11T03:49:21.866Z,73.60
2019-02-11T03:49:56.313Z,73.99
2019-02-11T03:50:31.789Z,74.14
2019-02-11T03:51:06.403Z,73.82
2019-02-11T03:51:40.992Z,73.36
2019-02-11T03:52:15.332Z,73.18
2019-02-11T03:52:49.677Z,73.12
2019-02-11T03:53:24.098Z,72.96
2019-02-11T03:53:58.467Z,73.14
2019-02-11T03:54:33.069Z,73.01
2019-02-11T03:55:07.531Z,72.95
2019-02-11T03:55:42.456Z,73.24
2019-02-11T03:56:16.890Z,72.91
2019-02-11T03:56:51.332Z,72.65
2019-02-11T03:57:25.701Z,72.43
2019-02-11T03:58:00.359Z,72.58
2019-02-11T03:58:35.005Z,72.48
2019-02-11T03:59:09.604Z,72.49
2019-02-11T03:59:44.262Z,72.19
2019-02-11T04:00:19.076Z,72.25
2019-02-11T04:00:53.439Z,71.91
2019-02-11T04:01:27.797Z,71.94
2019-02-11T04:02:02.829Z,72.37
2019-02-11T04:02:37.175Z,72.63
2019-02-11T04:03:11.776Z,72.36
2019-02-11T04:03:46.372Z,72.23
2019-02-11T04:04:21.035Z,72.22
2019-02-11T04:04:55.683Z,72.47
2019-02-11T04:05:30.322Z,72.24
2019-02-11T04:06:04.665Z,72.14
2019-02-11T04:06:39.012Z,71.97
2019-02-11T04:07:13.661Z,72.08
2019-02-11T04:07:47.995Z,71.61
2019-02-11T04:08:22.338Z,71.13
2019-02-11T04:08:56.671Z,71.52
2019-02-11T04:09:31.013Z,71.80
2019-02-11T04:10:06.164Z,72.19
2019-02-11T04:10:40.824Z,72.10
2019-02-11T04:11:15.172Z,72.48
2019-02-11T04:11:49.509Z,72.06
2019-02-11T04:12:23.957Z,72.07
2019-02-11T04:12:58.292Z,71.90
2019-02-11T04:13:32.929Z,72.45
2019-02-11T04:14:07.278Z,71.82
2019-02-11T04:14:41.882Z,71.71
2019-02-11T04:15:16.208Z,71.96
2019-02-11T04:15:51.117Z,72.00
2019-02-11T04:16:25.718Z,71.95
2019-02-11T04:17:00.058Z,71.93
2019-02-11T04:17:34.462Z,72.25
2019-02-11T04:18:08.803Z,72.29
2019-02-11T04:18:43.158Z,71.75
2019-02-11T04:19:17.790Z,71.73
2019-02-11T04:19:52.158Z,71.74
2019-02-11T04:20:26.658Z,71.80
2019-02-11T04:21:00.996Z,71.99
2019-02-11T04:21:35.584Z,71.95
2019-02-11T04:22:10.366Z,72.05
2019-02-11T04:22:44.777Z,71.82
2019-02-11T04:23:19.157Z,71.75
2019-02-11T04:23:53.820Z,71.65
2019-02-11T04:24:28.471Z,72.19
2019-02-11T04:25:03.072Z,72.40
2019-02-11T04:25:37.668Z,72.12
2019-02-11T04:26:12.290Z,72.48
2019-02-11T04:26:46.917Z,72.39
2019-02-11T04:27:21.262Z,72.21
2019-02-11T04:27:55.942Z,71.77
2019-02-11T04:28:30.379Z,71.11
2019-02-11T04:29:04.957Z,71.13
2019-02-11T04:29:39.422Z,71.01
2019-02-11T04:30:13.875Z,71.32
2019-02-11T04:30:48.285Z,71.38
2019-02-11T04:31:22.822Z,71.84
2019-02-11T04:31:57.413Z,71.71
2019-02-11T04:32:31.777Z,71.22
2019-02-11T04:33:06.171Z,71.27
2019-02-11T04:33:40.541Z,71.38
2019-02-11T04:34:15.213Z,71.06
2019-02-11T04:34:49.561Z,71.40
2019-02-11T04:35:23.931Z,71.84
2019-02-11T04:35:58.862Z,71.88
2019-02-11T04:36:33.221Z,71.72
2019-02-11T04:37:07.579Z,71.43
2019-02-11T04:37:41.942Z,71.15
2019-02-11T04:38:16.385Z,70.91
2019-02-11T04:38:50.744Z,71.25
2019-02-11T04:39:25.100Z,71.36
2019-02-11T04:40:00.052Z,71.29
2019-02-11T04:40:34.502Z,71.28
2019-02-11T04:41:09.212Z,71.05
2019-02-11T04:41:43.809Z,70.51
2019-02-11T04:42:18.170Z,70.54
2019-02-11T04:42:53.114Z,70.47
2019-02-11T04:43:27.947Z,70.38
2019-02-11T04:44:02.355Z,70.23
2019-02-11T04:44:36.715Z,70.35
2019-02-11T04:45:11.085Z,70.15
2019-02-11T04:45:45.975Z,70.21
2019-02-11T04:46:20.383Z,70.21
2019-02-11T04:46:55.020Z,69.76
2019-02-11T04:47:29.366Z,69.69
2019-02-11T04:48:04.014Z,69.39
2019-02-11T04:48:38.612Z,69.61
2019-02-11T04:49:13.254Z,69.83
2019-02-11T04:49:47.849Z,70.15
2019-02-11T04:50:22.249Z,70.54
2019-02-11T04:50:56.950Z,70.46
2019-02-11T04:51:31.310Z,70.53
2019-02-11T04:52:05.653Z,70.00
2019-02-11T04:52:40.086Z,70.22
2019-02-11T04:53:14.712Z,70.52
2019-02-11T04:53:49.073Z,70.13
2019-02-11T04:54:23.537Z,70.24
2019-02-11T04:54:57.875Z,70.21
2019-02-11T04:55:32.245Z,70.49
2019-02-11T04:56:06.845Z,70.72
2019-02-11T04:56:41.429Z,71.16
2019-02-11T04:57:15.768Z,70.25
2019-02-11T04:57:50.137Z,70.44
2019-02-11T04:58:24.532Z,70.94
2019-02-11T04:58:58.880Z,70.07
2019-02-11T04:59:33.556Z,70.22
2019-02-11T05:00:09.096Z,70.28
2019-02-11T05:00:43.677Z,69.94
2019-02-11T05:01:20.420Z,70.05
2019-02-11T05:01:54.833Z,69.97
2019-02-11T05:02:29.517Z,69.91
2019-02-11T05:03:03.877Z,69.65
2019-02-11T05:03:38.277Z,69.58
2019-02-11T05:04:12.630Z,70.10
2019-02-11T05:04:46.977Z,70.36
2019-02-11T05:05:21.424Z,70.25
2019-02-11T05:05:55.826Z,70.11
2019-02-11T05:06:30.473Z,70.38
2019-02-11T05:07:04.821Z,70.63
2019-02-11T05:07:39.182Z,70.47
2019-02-11T05:08:13.590Z,70.24
2019-02-11T05:08:48.215Z,70.43
2019-02-11T05:09:22.643Z,70.33
2019-02-11T05:09:57.029Z,70.29
2019-02-11T05:10:31.384Z,70.56
2019-02-11T05:11:05.716Z,70.97
2019-02-11T05:11:40.061Z,71.00
2019-02-11T05:12:14.423Z,71.19
2019-02-11T05:12:48.787Z,70.76
2019-02-11T05:13:23.308Z,70.67
2019-02-11T05:13:57.997Z,70.59
2019-02-11T05:14:32.578Z,70.39
2019-02-11T05:15:07.554Z,70.59
2019-02-11T05:15:42.162Z,70.54
2019-02-11T05:16:16.515Z,70.48
2019-02-11T05:16:50.911Z,70.90
2019-02-11T05:17:25.313Z,70.97
2019-02-11T05:17:59.720Z,71.03
2019-02-11T05:18:34.136Z,71.37
2019-02-11T05:19:08.734Z,71.24
2019-02-11T05:19:43.099Z,71.33
2019-02-11T05:20:17.716Z,71.48
2019-02-11T05:20:52.116Z,71.23
2019-02-11T05:21:26.878Z,70.99
2019-02-11T05:22:01.298Z,70.77
2019-02-11T05:22:35.916Z,70.64
2019-02-11T05:23:10.521Z,70.54
2019-02-11T05:23:45.443Z,70.57
2019-02-11T05:24:19.828Z,70.56
2019-02-11T05:24:54.222Z,70.53
2019-02-11T05:25:29.239Z,70.88
2019-02-11T05:26:03.583Z,71.21
2019-02-11T05:26:37.972Z,71.47
2019-02-11T05:27:12.352Z,71.27
2019-02-11T05:27:46.710Z,71.05
2019-02-11T05:28:21.195Z,70.89
2019-02-11T05:28:55.987Z,71.20
2019-02-11T05:29:30.657Z,71.26
2019-02-11T05:30:05.849Z,71.37
2019-02-11T05:30:40.784Z,71.48
2019-02-11T05:31:15.386Z,71.44
2019-02-11T05:31:49.765Z,71.32
2019-02-11T05:32:24.455Z,71.35
2019-02-11T05:33:01.175Z,71.21
2019-02-11T05:33:35.561Z,70.42
2019-02-11T05:34:09.932Z,70.31
2019-02-11T05:34:44.687Z,70.49
2019-02-11T05:35:19.067Z,70.15
2019-02-11T05:35:53.482Z,70.67
2019-02-11T05:36:27.846Z,70.57
2019-02-11T05:37:02.302Z,70.44
2019-02-11T05:37:36.666Z,70.47
2019-02-11T05:38:11.293Z,70.56
2019-02-11T05:38:45.987Z,70.66
2019-02-11T05:39:20.345Z,70.72
2019-02-11T05:39:55.067Z,70.92
2019-02-11T05:40:29.802Z,71.21
2019-02-11T05:41:04.146Z,71.04
2019-02-11T05:41:38.844Z,70.91
2019-02-11T05:42:13.536Z,70.71
2019-02-11T05:42:47.981Z,70.84
2019-02-11T05:43:22.586Z,71.08
2019-02-11T05:43:57.041Z,70.79
2019-02-11T05:44:31.400Z,70.95
2019-02-11T05:45:06.077Z,71.20
2019-02-11T05:45:40.444Z,71.46
2019-02-11T05:46:15.109Z,71.16
2019-02-11T05:46:49.501Z,71.06
2019-02-11T05:47:24.158Z,70.63
2019-02-11T05:47:59.132Z,70.45
2019-02-11T05:48:33.796Z,70.62
2019-02-11T05:49:08.136Z,70.33
2019-02-11T05:49:42.483Z,70.28
2019-02-11T05:50:17.418Z,70.13
2019-02-11T05:50:52.418Z,70.01
2019-02-11T05:51:27.050Z,70.26
2019-02-11T05:52:01.424Z,70.40
2019-02-11T05:52:36.092Z,70.28
2019-02-11T05:53:10.506Z,70.35
2019-02-11T05:53:45.010Z,70.59
2019-02-11T05:54:19.378Z,70.33
2019-02-11T05:54:53.778Z,70.58
2019-02-11T05:55:28.562Z,70.82
2019-02-11T05:56:02.927Z,70.59
2019-02-11T05:56:37.529Z,70.49
2019-02-11T05:57:11.884Z,70.57
2019-02-11T05:57:46.283Z,70.59
2019-02-11T05:58:20.637Z,70.47
2019-02-11T05:58:55.154Z,70.37
2019-02-11T05:59:29.893Z,70.31
2019-02-11T06:00:04.676Z,70.15
2019-02-11T06:00:39.254Z,69.96
2019-02-11T06:01:13.835Z,69.94
2019-02-11T06:01:48.197Z,69.57
2019-02-11T06:02:23.592Z,69.51
2019-02-11T06:02:58.278Z,69.37
2019-02-11T06:03:32.871Z,69.58
2019-02-11T06:04:07.264Z,69.50
2019-02-11T06:04:41.854Z,69.38
2019-02-11T06:05:16.802Z,69.61
2019-02-11T06:05:51.174Z,69.69
2019-02-11T06:06:25.677Z,69.59
2019-02-11T06:07:00.297Z,69.55
2019-02-11T06:07:34.735Z,69.63
2019-02-11T06:08:09.052Z,69.18
2019-02-11T06:08:43.406Z,69.25
2019-02-11T06:09:17.816Z,69.08
2019-02-11T06:09:52.246Z,69.44
2019-02-11T06:10:26.858Z,69.22
2019-02-11T06:11:01.514Z,69.36
2019-02-11T06:11:35.869Z,69.21
2019-02-11T06:12:10.509Z,69.06
2019-02-11T06:12:45.158Z,68.62
2019-02-11T06:13:19.517Z,68.93
2019-02-11T06:13:53.957Z,69.40
2019-02-11T06:14:28.601Z,69.61
2019-02-11T06:15:04.711Z,69.43
2019-02-11T06:15:39.257Z,69.46
2019-02-11T06:16:13.849Z,69.51
2019-02-11T06:16:48.217Z,69.53
2019-02-11T06:17:22.706Z,69.45
2019-02-11T06:17:57.137Z,69.35
2019-02-11T06:18:31.480Z,69.16
2019-02-11T06:19:06.452Z,69.87
2019-02-11T06:19:41.069Z,70.37
2019-02-11T06:20:15.516Z,70.43
2019-02-11T06:20:50.587Z,70.03
2019-02-11T06:21:25.251Z,69.73
2019-02-11T06:21:59.659Z,69.89
2019-02-11T06:22:34.068Z,69.87
2019-02-11T06:23:08.406Z,69.93
2019-02-11T06:23:43.006Z,69.98
2019-02-11T06:24:17.405Z,69.91
2019-02-11T06:24:51.830Z,69.50
2019-02-11T06:25:26.230Z,69.52
2019-02-11T06:26:00.879Z,69.64
2019-02-11T06:26:35.273Z,69.60
2019-02-11T06:27:09.947Z,69.52
2019-02-11T06:27:44.290Z,69.54
2019-02-11T06:28:18.921Z,69.65
2019-02-11T06:28:53.295Z,69.87
2019-02-11T06:29:28.043Z,69.95
2019-02-11T06:30:02.715Z,69.57
2019-02-11T06:30:37.601Z,69.47
2019-02-11T06:31:11.980Z,69.49
2019-02-11T06:31:46.875Z,69.59
2019-02-11T06:32:21.370Z,69.61
2019-02-11T06:32:55.836Z,69.57
2019-02-11T06:33:30.492Z,69.45
2019-02-11T06:34:04.906Z,69.34
2019-02-11T06:34:39.408Z,69.59
2019-02-11T06:35:13.747Z,69.68
2019-02-11T06:35:48.574Z,70.09
2019-02-11T06:36:22.956Z,69.91
2019-02-11T06:36:57.340Z,70.00
2019-02-11T06:37:31.697Z,69.98
2019-02-11T06:38:06.334Z,69.99
2019-02-11T06:38:40.691Z,69.62
2019-02-11T06:39:15.372Z,69.54
2019-02-11T06:39:50.038Z,69.37
2019-02-11T06:40:24.418Z,69.51
2019-02-11T06:40:58.797Z,69.71
2019-02-11T06:41:33.710Z,69.22
2019-02-11T06:42:08.297Z,69.42
2019-02-11T06:42:43.321Z,69.50
2019-02-11T06:43:17.653Z,69.24
2019-02-11T06:43:52.295Z,69.31
2019-02-11T06:44:26.770Z,69.44
2019-02-11T06:45:01.386Z,69.58
2019-02-11T06:45:35.732Z,69.96
2019-02-11T06:46:10.095Z,70.08
2019-02-11T06:46:44.799Z,69.95
2019-02-11T06:47:19.716Z,69.89
2019-02-11T06:47:54.207Z,69.98
2019-02-11T06:48:28.563Z,70.06
2019-02-11T06:49:02.906Z,70.10
2019-02-11T06:49:37.315Z,70.28
2019-02-11T06:50:12.345Z,70.08
2019-02-11T06:50:46.690Z,70.17
2019-02-11T06:51:23.215Z,70.17
2019-02-11T06:51:57.603Z,70.33
2019-02-11T06:52:31.942Z,70.41
2019-02-11T06:53:06.379Z,70.33
2019-02-11T06:53:41.000Z,70.40
2019-02-11T06:54:15.857Z,70.39
2019-02-11T06:54:50.714Z,70.48
2019-02-11T06:55:25.484Z,70.28
2019-02-11T06:55:59.846Z,70.37
2019-02-11T06:56:34.308Z,70.93
2019-02-11T06:57:08.967Z,70.65
2019-02-11T06:57:43.420Z,70.43
2019-02-11T06:58:17.786Z,70.64
2019-02-11T06:58:52.274Z,70.53
2019-02-11T06:59:26.994Z,70.47
2019-02-11T07:00:01.451Z,70.43
2019-02-11T07:00:36.055Z,70.52
2019-02-11T07:01:10.409Z,70.37
2019-02-11T07:01:45.374Z,70.10
2019-02-11T07:02:19.741Z,70.06
2019-02-11T07:02:54.531Z,70.07
2019-02-11T07:03:28.911Z,70.20
2019-02-11T07:04:03.589Z,70.13
2019-02-11T07:04:38.013Z,70.39
2019-02-11T07:05:12.359Z,70.27
2019-02-11T07:05:47.308Z,70.02
2019-02-11T07:06:21.991Z,70.21
2019-02-11T07:06:56.714Z,70.23
2019-02-11T07:07:31.416Z,70.32
2019-02-11T07:08:05.857Z,70.27
2019-02-11T07:08:40.296Z,69.80
2019-02-11T07:09:14.929Z,69.80
2019-02-11T07:09:49.842Z,69.73
2019-02-11T07:10:24.309Z,70.00
2019-02-11T07:10:58.779Z,69.92
2019-02-11T07:11:33.228Z,69.88
2019-02-11T07:12:07.594Z,69.96
2019-02-11T07:12:42.287Z,69.80
2019-02-11T07:13:16.668Z,69.68
2019-02-11T07:13:51.049Z,69.91
2019-02-11T07:14:25.756Z,69.51
2019-02-11T07:15:00.475Z,69.40
2019-02-11T07:15:34.845Z,69.49
2019-02-11T07:16:09.187Z,69.54
2019-02-11T07:16:43.648Z,69.49
2019-02-11T07:17:18.035Z,68.96
2019-02-11T07:17:52.508Z,69.00
2019-02-11T07:18:27.216Z,68.48
2019-02-11T07:19:01.824Z,68.82
2019-02-11T07:19:36.574Z,68.82
2019-02-11T07:20:11.021Z,68.97
2019-02-11T07:20:45.696Z,69.12
2019-02-11T07:21:20.257Z,68.72
2019-02-11T07:21:54.664Z,68.17
2019-02-11T07:22:29.032Z,68.22
2019-02-11T07:23:03.647Z,67.93
2019-02-11T07:23:38.096Z,67.69
2019-02-11T07:24:12.449Z,67.76
2019-02-11T07:24:47.058Z,67.96
2019-02-11T07:25:21.476Z,67.64